Time;durP1;ratioP1;P1;durP2;ratioP2;P2;SDS_P1;SDS_P2;PMS_P1;PMS_P2;Temp;Humidity;BMP_temperature;BMP_pressure;BME280_temperature;BME280_humidity;BME280_pressure;Samples;Min_cycle;Max_cycle;Signal;HPM_P1;HPM_P2
2023/11/03 00:04:32;;;;;;;;;24.50;24.50;;;;;;;;6488772;39;8907;-63
2023/11/03 00:10:37;;;;;;;;;22.75;22.00;;;;;;;;6489201;46;8884;-61
2023/11/03 00:16:44;;;;;;;;;26.25;23.25;;;;;;;;6489547;46;8977;-62
2023/11/03 00:22:48;;;;;;;;;28.75;25.75;;;;;;;;6489472;39;9734;-61
2023/11/03 00:28:51;;;;;;;;;26.50;26.50;;;;;;;;6490172;39;8871;-62
2023/11/03 00:34:57;;;;;;;;;27.00;24.25;;;;;;;;6489479;39;8915;-62
2023/11/03 00:41:05;;;;;;;;;27.00;26.25;;;;;;;;6489627;31;8947;-62
2023/11/03 00:47:12;;;;;;;;;29.00;27.75;;;;;;;;6488198;46;8880;-62
2023/11/03 00:53:17;;;;;;;;;31.00;28.25;;;;;;;;6489437;39;8903;-62
2023/11/03 00:59:28;;;;;;;;;29.25;28.00;;;;;;;;6489611;31;8907;-63
2023/11/03 01:05:33;;;;;;;;;27.75;27.50;;;;;;;;6489107;46;8960;-62
2023/11/03 01:11:36;;;;;;;;;28.00;26.75;;;;;;;;6488658;39;8938;-62
2023/11/03 01:17:41;;;;;;;;;27.50;25.00;;;;;;;;6488808;39;8961;-61
2023/11/03 01:23:52;;;;;;;;;28.50;25.00;;;;;;;;6487883;46;8827;-61
2023/11/03 01:29:56;;;;;;;;;35.00;30.75;;;;;;;;6489165;39;8914;-62
2023/11/03 01:36:04;;;;;;;;;33.25;27.75;;;;;;;;6487718;39;8971;-62
2023/11/03 01:42:06;;;;;;;;;27.75;27.00;;;;;;;;6488357;46;8906;-61
2023/11/03 01:48:08;;;;;;;;;28.50;26.75;;;;;;;;6487335;39;8884;-62
2023/11/03 01:54:13;;;;;;;;;24.75;22.75;;;;;;;;6489013;46;8903;-62
2023/11/03 02:00:20;;;;;;;;;29.25;27.50;;;;;;;;6489178;31;8912;-61
2023/11/03 02:06:27;;;;;;;;;31.25;27.00;;;;;;;;6488871;39;9671;-63
2023/11/03 05:06:32;;;;;;;;;21.50;19.75;;;;;;;;6471330;46;9015;-60
2023/11/03 05:12:37;;;;;;;;;25.75;21.75;;;;;;;;6492408;39;8903;-61
2023/11/03 05:18:40;;;;;;;;;27.50;23.50;;;;;;;;6490933;39;8959;-60
2023/11/03 05:24:44;;;;;;;;;21.00;20.00;;;;;;;;6492224;31;8904;-61
2023/11/03 05:30:46;;;;;;;;;20.75;20.00;;;;;;;;6491732;31;8955;-62
2023/11/03 05:36:48;;;;;;;;;21.50;21.50;;;;;;;;6488941;46;8950;-62
2023/11/03 05:42:50;;;;;;;;;28.00;23.50;;;;;;;;6490166;39;8988;-61
2023/11/03 05:48:52;;;;;;;;;22.50;22.25;;;;;;;;6491481;39;8875;-60
2023/11/03 05:54:55;;;;;;;;;25.25;25.25;;;;;;;;6492386;39;8957;-62
2023/11/03 06:00:57;;;;;;;;;29.00;27.00;;;;;;;;6489840;39;8919;-63
2023/11/03 06:07:01;;;;;;;;;31.75;29.25;;;;;;;;6491843;39;8961;-62
2023/11/03 06:13:05;;;;;;;;;22.75;21.25;;;;;;;;6489999;39;8912;-61
2023/11/03 06:19:08;;;;;;;;;34.25;27.50;;;;;;;;6490269;31;8904;-63
2023/11/03 06:25:11;;;;;;;;;28.25;26.00;;;;;;;;6492310;39;8798;-61
2023/11/03 06:31:15;;;;;;;;;30.00;25.00;;;;;;;;6488351;39;8841;-62
2023/11/03 06:37:19;;;;;;;;;32.75;29.75;;;;;;;;6489135;31;8931;-60
2023/11/03 06:43:21;;;;;;;;;30.00;27.75;;;;;;;;6489173;39;9036;-63
2023/11/03 06:49:25;;;;;;;;;29.75;27.50;;;;;;;;6484768;46;8916;-61
2023/11/03 06:55:28;;;;;;;;;25.33;25.00;;;;;;;;6487625;39;8877;-62
2023/11/03 07:01:32;;;;;;;;;28.67;26.67;;;;;;;;6487978;39;8957;-62
2023/11/03 07:07:35;;;;;;;;;28.67;25.00;;;;;;;;6487336;47;9004;-62
2023/11/03 07:13:37;;;;;;;;;29.67;26.67;;;;;;;;6486787;47;8924;-62
2023/11/03 07:19:42;;;;;;;;;32.33;30.33;;;;;;;;6487624;46;8908;-61
2023/11/03 07:25:45;;;;;;;;;30.50;30.50;;;;;;;;6489040;46;8916;-61
2023/11/03 07:31:48;;;;;;;;;38.25;35.00;;;;;;;;6488566;39;8876;-61
2023/11/03 07:37:51;;;;;;;;;29.25;29.00;;;;;;;;6487968;39;8953;-63
2023/11/03 07:43:54;;;;;;;;;37.25;31.50;;;;;;;;6489585;39;8948;-63
2023/11/03 07:49:56;;;;;;;;;37.25;36.00;;;;;;;;6489207;39;8919;-61
2023/11/03 07:55:59;;;;;;;;;38.00;35.25;;;;;;;;6490408;39;8872;-61
2023/11/03 08:02:03;;;;;;;;;21.67;19.67;;;;;;;;6489537;39;8960;-59
2023/11/03 08:08:07;;;;;;;;;31.67;28.67;;;;;;;;6489214;39;9052;-60
2023/11/03 08:14:09;;;;;;;;;27.33;25.67;;;;;;;;6487937;46;8939;-63
2023/11/03 08:20:15;;;;;;;;;31.33;27.67;;;;;;;;6487785;46;8929;-62
2023/11/03 08:26:19;;;;;;;;;28.67;28.00;;;;;;;;6489373;39;8883;-62
2023/11/03 08:32:22;;;;;;;;;29.00;27.00;;;;;;;;6488890;46;8905;-61
2023/11/03 08:38:25;;;;;;;;;30.33;26.67;;;;;;;;6488522;31;9757;-61
2023/11/03 08:44:27;;;;;;;;;26.67;26.00;;;;;;;;6489308;39;9568;-59
2023/11/03 08:50:29;;;;;;;;;28.00;25.67;;;;;;;;6488533;31;8929;-63
2023/11/03 08:56:32;;;;;;;;;26.67;24.00;;;;;;;;6490400;31;8943;-61
2023/11/03 09:02:35;;;;;;;;;28.33;27.67;;;;;;;;6488832;31;9037;-63
2023/11/03 09:08:38;;;;;;;;;26.67;23.00;;;;;;;;6490162;46;8994;-60
2023/11/03 09:14:41;;;;;;;;;22.33;19.00;;;;;;;;6490469;39;8908;-63
2023/11/03 09:20:53;;;;;;;;;23.00;20.67;;;;;;;;6488830;46;8899;-64
2023/11/03 09:27:00;;;;;;;;;21.00;20.00;;;;;;;;6486922;46;9047;-64
2023/11/03 09:33:11;;;;;;;;;26.67;22.33;;;;;;;;6489232;39;9106;-61
2023/11/03 09:39:16;;;;;;;;;23.00;19.67;;;;;;;;6488702;31;8980;-61
2023/11/03 09:45:27;;;;;;;;;24.33;23.00;;;;;;;;6489888;39;8915;-62
2023/11/03 09:51:35;;;;;;;;;19.33;18.00;;;;;;;;6490295;39;9022;-61
2023/11/03 09:57:39;;;;;;;;;21.33;20.33;;;;;;;;6489684;39;8943;-63
2023/11/03 10:03:43;;;;;;;;;23.67;21.00;;;;;;;;6490240;39;8998;-62
2023/11/03 10:09:48;;;;;;;;;21.67;20.67;;;;;;;;6486816;46;8906;-61
2023/11/03 10:15:51;;;;;;;;;23.67;21.67;;;;;;;;6488228;46;8927;-61
2023/11/03 10:21:54;;;;;;;;;15.67;15.00;;;;;;;;6488443;39;8943;-61
2023/11/03 10:27:56;;;;;;;;;20.33;18.33;;;;;;;;6488899;31;9617;-62
2023/11/03 10:33:59;;;;;;;;;18.67;16.33;;;;;;;;6489256;46;8992;-63
2023/11/03 10:40:04;;;;;;;;;23.33;21.33;;;;;;;;6488388;46;9043;-63
2023/11/03 10:46:18;;;;;;;;;14.00;14.00;;;;;;;;6489321;46;8920;-63
2023/11/03 10:52:44;;;;;;;;;16.00;16.00;;;;;;;;6488069;39;8960;-62
2023/11/03 10:58:51;;;;;;;;;21.67;19.67;;;;;;;;6490698;39;8952;-62
2023/11/03 11:05:09;;;;;;;;;20.67;20.33;;;;;;;;6487524;31;9037;-62
2023/11/03 11:11:15;;;;;;;;;20.33;20.00;;;;;;;;6488075;39;9066;-62
2023/11/03 11:17:23;;;;;;;;;19.67;18.67;;;;;;;;6487086;39;9018;-63
2023/11/03 11:23:33;;;;;;;;;28.67;25.33;;;;;;;;6490053;46;9088;-63
2023/11/03 11:29:35;;;;;;;;;22.00;21.33;;;;;;;;6489276;39;8963;-61
2023/11/03 11:35:41;;;;;;;;;18.67;18.67;;;;;;;;6490229;39;8972;-63
2023/11/03 11:41:55;;;;;;;;;24.67;21.33;;;;;;;;6487053;46;8985;-62
2023/11/03 11:48:03;;;;;;;;;18.33;17.67;;;;;;;;6487688;46;8923;-63
2023/11/03 11:54:10;;;;;;;;;21.33;18.33;;;;;;;;6489652;46;9135;-64
2023/11/03 12:00:18;;;;;;;;;22.33;22.00;;;;;;;;6487925;46;9037;-61
2023/11/03 12:06:21;;;;;;;;;29.00;26.67;;;;;;;;6489706;39;10046;-62
2023/11/03 12:12:29;;;;;;;;;21.33;21.00;;;;;;;;6489554;39;9595;-61
2023/11/03 12:18:37;;;;;;;;;31.00;28.67;;;;;;;;6487466;39;9026;-64
2023/11/03 12:24:42;;;;;;;;;20.67;20.67;;;;;;;;6488351;39;8872;-62
2023/11/03 12:30:52;;;;;;;;;25.67;25.67;;;;;;;;6487084;39;9026;-62
2023/11/03 12:37:07;;;;;;;;;27.67;25.33;;;;;;;;6490279;31;8933;-61
2023/11/03 12:43:14;;;;;;;;;28.67;25.67;;;;;;;;6490463;46;8988;-61
2023/11/03 12:49:20;;;;;;;;;32.00;28.33;;;;;;;;6490441;31;8916;-62
2023/11/03 12:55:26;;;;;;;;;35.67;31.67;;;;;;;;6488969;46;9052;-63
2023/11/03 13:01:31;;;;;;;;;29.33;27.33;;;;;;;;6490197;39;9013;-63
2023/11/03 13:07:39;;;;;;;;;30.67;29.33;;;;;;;;6488216;39;8999;-62
2023/11/03 13:13:41;;;;;;;;;29.33;24.67;;;;;;;;6488798;39;9023;-62
2023/11/03 13:19:43;;;;;;;;;38.33;36.00;;;;;;;;6487326;31;9038;-63
2023/11/03 13:25:45;;;;;;;;;25.00;23.00;;;;;;;;6487920;39;8996;-62
2023/11/03 13:31:52;;;;;;;;;34.67;32.33;;;;;;;;6487293;39;8907;-62
2023/11/03 13:37:55;;;;;;;;;30.00;29.67;;;;;;;;6488399;31;8977;-63
2023/11/03 13:43:58;;;;;;;;;29.33;24.33;;;;;;;;6486444;39;8966;-62
2023/11/03 13:50:00;;;;;;;;;26.67;23.33;;;;;;;;6485477;46;8941;-62
2023/11/03 13:56:21;;;;;;;;;24.67;23.00;;;;;;;;6486963;31;8997;-62
2023/11/03 14:02:27;;;;;;;;;24.67;22.67;;;;;;;;6485920;31;9736;-62
2023/11/03 14:08:34;;;;;;;;;29.00;26.67;;;;;;;;6486622;31;9000;-62
2023/11/03 14:14:38;;;;;;;;;33.33;31.00;;;;;;;;6485852;39;8938;-61
2023/11/03 14:20:42;;;;;;;;;25.00;23.67;;;;;;;;6483829;46;9076;-62
2023/11/03 14:26:47;;;;;;;;;19.00;17.00;;;;;;;;6485273;31;8935;-61
2023/11/03 14:32:51;;;;;;;;;26.67;26.00;;;;;;;;6483897;39;9086;-60
2023/11/03 14:38:55;;;;;;;;;27.00;26.33;;;;;;;;6486687;39;9023;-61
2023/11/03 14:45:00;;;;;;;;;26.67;25.67;;;;;;;;6488345;39;8995;-62
2023/11/03 14:51:08;;;;;;;;;27.00;24.33;;;;;;;;6488957;39;8874;-61
2023/11/03 14:57:17;;;;;;;;;22.00;18.33;;;;;;;;6489940;39;8972;-62
2023/11/03 15:03:20;;;;;;;;;27.67;25.67;;;;;;;;6488564;39;8911;-61
2023/11/03 15:09:25;;;;;;;;;24.00;24.00;;;;;;;;6488815;39;8860;-61
2023/11/03 15:15:28;;;;;;;;;29.67;27.00;;;;;;;;6489660;36;8914;-61
2023/11/03 15:21:30;;;;;;;;;35.67;32.33;;;;;;;;6488383;39;8911;-62
2023/11/03 15:27:34;;;;;;;;;36.33;33.67;;;;;;;;6488113;47;8922;-62
2023/11/03 15:33:37;;;;;;;;;41.33;37.00;;;;;;;;6486599;47;8863;-60
2023/11/03 15:39:45;;;;;;;;;39.33;35.67;;;;;;;;6487602;39;8914;-59
2023/11/03 15:45:48;;;;;;;;;42.67;37.33;;;;;;;;6487089;39;9011;-60
2023/11/03 15:51:51;;;;;;;;;48.00;39.00;;;;;;;;6485231;39;9676;-62
2023/11/03 15:57:53;;;;;;;;;38.00;35.67;;;;;;;;6488447;39;9040;-60
2023/11/03 16:03:56;;;;;;;;;49.33;39.67;;;;;;;;6487364;39;8972;-62
2023/11/03 16:09:59;;;;;;;;;45.33;38.00;;;;;;;;6491421;39;8829;-63
2023/11/03 16:16:01;;;;;;;;;38.33;34.33;;;;;;;;6490957;46;8906;-61
2023/11/03 16:22:04;;;;;;;;;16.33;11.67;;;;;;;;6490433;46;8897;-62
2023/11/03 16:28:07;;;;;;;;;46.33;38.33;;;;;;;;6491008;39;8803;-63
2023/11/03 16:34:10;;;;;;;;;45.67;37.67;;;;;;;;6490264;46;8941;-63
2023/11/03 16:40:13;;;;;;;;;43.00;37.33;;;;;;;;6490109;39;8973;-64
2023/11/03 16:46:16;;;;;;;;;31.67;28.67;;;;;;;;6491178;39;9041;-63
2023/11/03 16:52:19;;;;;;;;;41.33;37.33;;;;;;;;6489967;39;8858;-65
2023/11/03 16:58:21;;;;;;;;;38.67;36.00;;;;;;;;6490516;39;8889;-62
2023/11/03 17:04:24;;;;;;;;;42.33;36.33;;;;;;;;6490123;39;8937;-64
2023/11/03 17:10:27;;;;;;;;;45.67;41.00;;;;;;;;6489965;46;8893;-63
2023/11/03 17:16:29;;;;;;;;;40.67;37.33;;;;;;;;6490841;39;9493;-63
2023/11/03 17:22:32;;;;;;;;;44.67;37.33;;;;;;;;6490062;39;8923;-62
2023/11/03 17:28:34;;;;;;;;;46.50;40.00;;;;;;;;6491063;39;8834;-61
2023/11/03 17:34:38;;;;;;;;;53.00;41.25;;;;;;;;6490389;31;8953;-61
2023/11/03 17:40:41;;;;;;;;;47.75;39.00;;;;;;;;6490639;31;8961;-64
2023/11/03 17:46:44;;;;;;;;;49.75;40.50;;;;;;;;6490685;39;9490;-63
2023/11/03 17:52:48;;;;;;;;;46.00;38.50;;;;;;;;6490151;39;8975;-62
2023/11/03 17:58:50;;;;;;;;;45.00;40.00;;;;;;;;6490940;39;8843;-63
2023/11/03 18:04:52;;;;;;;;;53.00;45.00;;;;;;;;6489748;46;8905;-63
2023/11/03 18:10:55;;;;;;;;;47.50;42.00;;;;;;;;6489719;46;9026;-62
2023/11/03 18:16:59;;;;;;;;;43.67;38.67;;;;;;;;6490726;46;8841;-61
2023/11/03 18:23:01;;;;;;;;;47.75;41.25;;;;;;;;6489248;31;8871;-62
2023/11/03 18:29:04;;;;;;;;;45.33;38.67;;;;;;;;6310265;31;10000601;-65
2023/11/03 18:35:09;;;;;;;;;54.75;45.75;;;;;;;;6489437;46;8997;-62
2023/11/03 18:41:13;;;;;;;;;55.50;42.00;;;;;;;;6488913;39;8945;-61
2023/11/03 18:47:17;;;;;;;;;56.00;45.00;;;;;;;;6490856;31;8866;-61
2023/11/03 18:53:21;;;;;;;;;29.00;22.50;;;;;;;;6489208;46;8931;-64
2023/11/03 18:59:26;;;;;;;;;50.00;43.00;;;;;;;;6490012;39;8913;-62
2023/11/03 19:05:48;;;;;;;;;55.00;45.00;;;;;;;;6488879;39;8857;-62
2023/11/03 19:12:06;;;;;;;;;54.25;45.00;;;;;;;;6489150;47;8945;-62
2023/11/03 19:18:09;;;;;;;;;54.00;45.75;;;;;;;;6489160;47;8900;-63
2023/11/03 19:24:13;;;;;;;;;50.00;40.75;;;;;;;;6488810;47;8925;-63
2023/11/03 19:30:17;;;;;;;;;54.50;42.75;;;;;;;;6489560;47;8895;-62
2023/11/03 19:36:21;;;;;;;;;50.75;41.25;;;;;;;;6488445;39;8930;-61
2023/11/03 19:42:25;;;;;;;;;54.50;44.75;;;;;;;;6490325;46;8905;-63
2023/11/03 19:48:27;;;;;;;;;49.50;40.00;;;;;;;;6491244;31;8910;-61
2023/11/03 19:54:33;;;;;;;;;47.75;39.25;;;;;;;;6491210;39;8889;-61
2023/11/03 20:00:36;;;;;;;;;51.00;41.50;;;;;;;;6491411;31;9137;-61
2023/11/03 20:06:39;;;;;;;;;45.50;39.00;;;;;;;;6490896;39;8881;-62
2023/11/03 20:12:41;;;;;;;;;47.00;39.50;;;;;;;;6509830;36;8816;-61
2023/11/03 20:18:43;;;;;;;;;52.50;40.00;;;;;;;;6491923;39;8903;-62
2023/11/03 20:24:46;;;;;;;;;50.50;42.50;;;;;;;;6491468;39;8851;-63
2023/11/03 20:30:48;;;;;;;;;46.75;40.75;;;;;;;;6491451;46;8868;-60
2023/11/03 20:36:51;;;;;;;;;35.25;33.50;;;;;;;;6490654;31;8890;-61
2023/11/03 20:42:53;;;;;;;;;52.00;41.00;;;;;;;;6491402;39;8873;-61
2023/11/03 20:48:55;;;;;;;;;43.50;37.00;;;;;;;;6490747;46;8874;-60
2023/11/03 20:54:59;;;;;;;;;41.75;38.50;;;;;;;;6490864;39;8868;-61
2023/11/03 21:01:02;;;;;;;;;46.50;40.00;;;;;;;;6492044;39;9021;-62
2023/11/03 21:07:06;;;;;;;;;45.75;39.00;;;;;;;;6490822;31;8907;-63
2023/11/03 21:13:08;;;;;;;;;42.25;38.00;;;;;;;;6491535;39;8824;-63
2023/11/03 21:19:11;;;;;;;;;51.00;40.50;;;;;;;;6490098;39;8895;-61
2023/11/03 21:25:16;;;;;;;;;47.75;39.75;;;;;;;;6490077;46;8906;-61
2023/11/03 21:31:18;;;;;;;;;42.50;38.00;;;;;;;;6428385;36;5000924;-61
2023/11/03 21:37:24;;;;;;;;;47.50;38.75;;;;;;;;6489593;46;9007;-61
2023/11/03 21:43:26;;;;;;;;;50.50;39.50;;;;;;;;6491378;39;8926;-62
2023/11/03 21:49:29;;;;;;;;;40.00;35.00;;;;;;;;6489922;46;8912;-60
2023/11/03 21:55:32;;;;;;;;;49.25;38.00;;;;;;;;6489610;39;8878;-61
2023/11/03 22:01:34;;;;;;;;;38.75;36.00;;;;;;;;6490953;31;8979;-62
2023/11/03 22:07:37;;;;;;;;;36.33;34.67;;;;;;;;6489992;39;9592;-61
2023/11/03 22:13:39;;;;;;;;;53.25;40.50;;;;;;;;6490734;39;8948;-62
2023/11/03 22:19:42;;;;;;;;;44.00;38.00;;;;;;;;6490832;39;8922;-62
2023/11/03 22:25:44;;;;;;;;;46.00;40.50;;;;;;;;6489627;46;8976;-63
2023/11/03 22:31:49;;;;;;;;;32.67;29.33;;;;;;;;6489416;39;8878;-61
2023/11/03 22:37:53;;;;;;;;;50.00;41.67;;;;;;;;6489319;39;8924;-60
2023/11/03 22:43:55;;;;;;;;;46.00;37.00;;;;;;;;6490131;39;8893;-60
2023/11/03 22:49:57;;;;;;;;;49.00;39.67;;;;;;;;6490479;39;8901;-61
2023/11/03 22:56:00;;;;;;;;;49.25;38.50;;;;;;;;6490102;31;8917;-62
2023/11/03 23:02:02;;;;;;;;;46.00;38.00;;;;;;;;6490646;31;9435;-63
2023/11/03 23:08:06;;;;;;;;;47.00;37.67;;;;;;;;6489342;39;9051;-62
2023/11/03 23:14:08;;;;;;;;;48.67;41.33;;;;;;;;6490932;39;9008;-61
2023/11/03 23:20:15;;;;;;;;;50.00;39.33;;;;;;;;6492846;31;8926;-61
2023/11/03 23:26:19;;;;;;;;;40.33;38.00;;;;;;;;6493136;39;10200;-61
2023/11/03 23:32:22;;;;;;;;;52.25;42.00;;;;;;;;6494134;46;8860;-61
2023/11/03 23:38:24;;;;;;;;;47.67;40.67;;;;;;;;6493226;46;9002;-62
2023/11/03 23:44:27;;;;;;;;;50.25;41.00;;;;;;;;6494352;39;8840;-62
2023/11/03 23:50:29;;;;;;;;;44.67;38.00;;;;;;;;6493420;46;8824;-61
2023/11/03 23:56:32;;;;;;;;;37.00;35.67;;;;;;;;6493886;39;8883;-60
